ベルリン・テーゲル国際空港の過去48時間の天気

ベルリン・テーゲル国際空港 (Berlin-Tegel)

現在時刻: 9/28 10:52 CEST (9/28 08:52 UTC) 以下の時間は現地時間です。

過去48時間のMETAR気象情報
時間 風向 風速(m/s) 視程 気温(℃) 湿度(%) 気圧(hPa) 天気現象
28 10:20 南東 3 10km以上 14 67 1011
28 09:50 南東 2 10km以上 14 72 1011
28 09:20 南南東 2 10km以上 13 72 1011
28 08:50 南南東 2 10km以上 12 82 1011
28 08:20 南東 2 10km以上 11 82 1011
28 07:50 南南東 2 10km以上 10 87 1010
28 07:20 南南東 2 10km以上 10 87 1010
28 06:50 南東 2 10km以上 10 94 1010
28 06:20 不定 1 10km以上 10 94 1009
28 05:50 南東 2 10km以上 10 94 1009
28 05:20 南東 1 10km以上 10 94 1009
28 04:50 不定 1 10km以上 10 94 1009
28 04:20 南東 2 10km以上 10 94 1009
28 03:50 南東 1 10km以上 10 94 1009
28 03:20 南南東 2 10km以上 10 100 1009 弱い雨
28 02:50 1 10km以上 10 94 1009 弱い雨
28 02:20 不定 1 10km以上 11 87 1009 弱い雨
28 01:50 南南東 2 10km以上 11 94 1009 弱い雨
28 01:20 2 10km以上 11 94 1009 弱い雨
28 00:50 2 10km以上 11 94 1009 弱い雨
28 00:20 3 10km以上 11 94 1008 弱い雨
27 23:50 2 10km以上 11 94 1009 弱い雨
27 23:20 南西 2 10km以上 11 87 1008 弱い雨
27 22:50 2 10km以上 11 87 1008
27 22:20 南南西 3 10km以上 11 87 1008
27 21:50 南南西 2 10km以上 12 82 1008
27 21:20 2 10km以上 11 87 1007
27 20:50 南西 2 10km以上 11 87 1007
27 20:20 西南西 2 10km以上 11 87 1007 弱い雨
27 19:50 南南西 2 10km以上 12 77 1006 弱い雨
27 19:20 南西 2 10km以上 12 77 1006
27 18:50 南西 2 10km以上 12 77 1006 弱い雨
27 18:20 南西 2 10km以上 12 77 1006
27 17:50 西南西 2 10km以上 12 77 1006
27 17:20 南西 3 10km以上 12 71 1006
27 16:50 南南西 4 10km以上 12 71 1005
27 16:20 南南西 4 10km以上 13 67 1005
27 15:50 南西 3 10km以上 13 67 1005
27 15:20 南西 3 10km以上 13 67 1005
27 14:50 南西 3 10km以上 13 67 1004
27 14:20 西 2 10km以上 13 67 1004
27 13:50 西 2 10km以上 12 71 1004
27 13:20 西 3 10km以上 12 71 1004
27 12:50 西南西 2 10km以上 11 76 1004
27 12:20 西南西 2 10km以上 11 82 1004
27 11:50 西南西 2 10km以上 10 82 1003 弱い雨
27 11:20 西 2 10km以上 10 82 1003
27 10:50 南南西 2 10km以上 9 87 1003 弱い雨
27 10:20 不定 1 10km以上 9 81 1003 弱い雨
27 09:50 不定 1 10km以上 8 87 1003 弱い雨
27 09:20 不定 1 10km以上 8 87 1002 弱い雨
27 08:50 南西 2 10km以上 8 87 1002 弱い雨
27 08:20 不定 1 10km以上 8 87 1002
27 07:50 南南東 2 10km以上 8 87 1001
27 07:20 2 10km以上 7 93 1001
27 06:50 南東 2 10km以上 7 93 1001
27 06:20 南東 2 10km以上 7 93 1001
27 05:50 南東 2 10km以上 7 93 1001
27 05:20 東南東 2 10km以上 7 93 1000
27 04:50 南東 2 10km以上 7 93 1000
27 04:20 南東 2 10km以上 7 93 1000
27 03:50 南南東 3 10km以上 8 93 999
27 03:20 南南東 4 10km以上 8 93 999
27 02:50 南南東 4 10km以上 9 87 999
27 02:20 南南東 3 10km以上 9 87 999
27 01:50 3 10km以上 9 93 998
27 01:20 4 10km以上 9 93 998
27 00:50 5 10km以上 9 93 997
27 00:20 4 10km以上 9 100 997 弱い霧雨
26 23:50 4 8000m 10 94 997 弱い霧雨
26 23:20 3 10km以上 10 94 996
26 22:50 4 10km以上 10 94 995 弱い霧雨
26 22:20 5 10km以上 10 94 995 弱い霧雨
26 21:50 4 10km以上 10 94 994
26 21:20 5 10km以上 9 100 993
26 20:50 6 10km以上 10 94 992 弱い霧雨
26 20:20 南南西 7 6000m 10 94 991 弱い霧雨
26 19:50 南西 6 6000m 10 100 991 弱い雨 弱い霧雨
26 19:20 南西 6 6000m 11 94 990 弱い雨 弱い霧雨
26 18:50 西南西 6 6000m 11 94 989 弱い雨 弱い霧雨
26 18:20 西南西 6 6000m 11 94 989 弱い雨
26 17:50 西 6 5000m 11 94 989 弱い雨
26 17:20 西北西 6 7000m 11 94 989 弱い雨
26 16:50 西北西 6 7000m 11 94 989 弱い雨
26 16:20 西北西 6 7000m 10 100 990 弱い雨
26 15:50 北西 6 4500m 10 100 991
26 15:20 西北西 6 3500m 10 100 991
26 14:50 西北西 6 4500m 10 100 992
26 14:20 西北西 5 5000m 10 100 992
26 13:50 西北西 5 7000m 10 100 993 弱い雨
26 13:20 西北西 5 10km以上 10 94 994 弱い雨
26 12:50 西北西 4 10km以上 10 94 994 弱い雨
26 12:20 西北西 4 10km以上 11 87 994 弱い雨
26 11:50 西北西 3 10km以上 11 87 995 弱い雨
26 11:20 西北西 3 10km以上 11 87 995 弱い雨
EDDT 280820Z 14005KT 090V170 CAVOK 14/08 Q1011 NOSIG
EDDT 280750Z 14004KT 100V180 CAVOK 14/09 Q1011 NOSIG
EDDT 280720Z 15003KT 080V200 CAVOK 13/08 Q1011 NOSIG
EDDT 280650Z 15004KT 110V170 CAVOK 12/09 Q1011 NOSIG
EDDT 280620Z 14003KT 090V240 CAVOK 11/08 Q1011 NOSIG
EDDT 280550Z 16003KT 130V190 CAVOK 10/08 Q1010 NOSIG
EDDT 280520Z 15003KT 120V180 CAVOK 10/08 Q1010 NOSIG
EDDT 280450Z 13004KT 090V150 CAVOK 10/09 Q1010 NOSIG
EDDT 280420Z VRB01KT CAVOK 10/09 Q1009 NOSIG
EDDT 280350Z 13003KT 090V170 CAVOK 10/09 Q1009 NOSIG
EDDT 280320Z 14002KT CAVOK 10/09 Q1009 NOSIG
EDDT 280250Z VRB01KT CAVOK 10/09 Q1009 NOSIG
EDDT 280220Z 14004KT 110V170 CAVOK 10/09 Q1009
EDDT 280150Z 13002KT 9999 SCT044 10/09 Q1009
EDDT 280120Z 15003KT 9999 -RA FEW047 10/10 Q1009
EDDT 280050Z 17002KT 9999 -RA FEW049 10/09 Q1009
EDDT 280020Z VRB01KT 9999 -RA FEW047 11/09 Q1009
EDDT 272350Z 16003KT 140V200 9999 -RA FEW047 11/10 Q1009
EDDT 272320Z 17004KT 9999 -RA NSC 11/10 Q1009
EDDT 272250Z 19003KT 9999 -RA FEW047 11/10 Q1009
EDDT 272220Z 19005KT 160V220 9999 -RA NSC 11/10 Q1008
EDDT 272150Z 18003KT 9999 -RA NSC 11/10 Q1009
EDDT 272120Z 22003KT 9999 -RA FEW045 11/09 Q1008
EDDT 272050Z 19004KT 9999 FEW034 11/09 Q1008 NOSIG
EDDT 272020Z 21005KT 9999 SCT037 11/09 Q1008 NOSIG
EDDT 271950Z 21004KT 9999 SCT031 12/09 Q1008 NOSIG
EDDT 271920Z 19004KT 9999 FEW041 11/09 Q1007 NOSIG
EDDT 271850Z 22003KT CAVOK 11/09 Q1007 NOSIG
EDDT 271820Z 24003KT 220V280 9999 -RA NSC 11/09 Q1007 NOSIG
EDDT 271750Z 21004KT 9999 -RA NSC 12/08 Q1006 NOSIG
EDDT 271720Z 23003KT CAVOK 12/08 Q1006 NOSIG
EDDT 271650Z 23003KT 9999 -RA NSC 12/08 Q1006 NOSIG
EDDT 271620Z 23004KT CAVOK 12/08 Q1006 NOSIG
EDDT 271550Z 25004KT 9999 FEW030 12/08 Q1006 NOSIG
EDDT 271520Z 22005KT 9999 FEW022 12/07 Q1006 NOSIG
EDDT 271450Z 21008KT 9999 FEW022 12/07 Q1005 NOSIG
EDDT 271420Z 21008KT 9999 FEW024 13/07 Q1005 NOSIG
EDDT 271350Z 22006KT 9999 FEW024 13/07 Q1005 NOSIG
EDDT 271320Z 22006KT 190V250 9999 FEW025 13/07 Q1005 NOSIG
EDDT 271250Z 23005KT 180V270 9999 FEW023 13/07 Q1004 NOSIG
EDDT 271220Z 26004KT 170V310 9999 FEW020 13/07 Q1004 NOSIG
EDDT 271150Z 26004KT 220V300 9999 FEW019 12/07 Q1004 NOSIG
EDDT 271120Z 26005KT 210V290 9999 FEW016 12/07 Q1004 NOSIG
EDDT 271050Z 25004KT 200V300 9999 FEW015 11/07 Q1004 NOSIG
EDDT 271020Z 25003KT 190V320 9999 FEW011 11/08 Q1004 NOSIG
EDDT 270950Z 25003KT 190V300 9999 -RA FEW010 10/07 Q1003 NOSIG
EDDT 270920Z 26003KT 200V300 9999 FEW015 10/07 Q1003 NOSIG
EDDT 270850Z 20003KT 9999 -RA FEW015 09/07 Q1003 NOSIG
EDDT 270820Z VRB02KT 9999 -RA SCT030 09/06 Q1003 NOSIG
EDDT 270750Z VRB01KT 9999 -RA BKN028 08/06 Q1003 NOSIG
EDDT 270720Z VRB02KT 9999 -RA BKN030 08/06 Q1002 NOSIG
EDDT 270650Z 23003KT 9999 -RA BKN035 08/06 Q1002 NOSIG
EDDT 270620Z VRB02KT 9999 SCT035 08/06 Q1002 NOSIG
EDDT 270550Z 16003KT 120V190 CAVOK 08/06 Q1001 NOSIG
EDDT 270520Z 19004KT CAVOK 07/06 Q1001 NOSIG
EDDT 270450Z 14003KT CAVOK 07/06 Q1001 NOSIG
EDDT 270420Z 13003KT CAVOK 07/06 Q1001 NOSIG
EDDT 270350Z 13003KT 9999 FEW010 07/06 Q1001 NOSIG
EDDT 270320Z 11004KT 9999 FEW010 07/06 Q1000 NOSIG
EDDT 270250Z 14003KT 110V180 9999 FEW010 07/06 Q1000 NOSIG
EDDT 270220Z 14004KT 9999 FEW010 07/06 Q1000
EDDT 270150Z 15005KT 120V190 9999 SCT010 08/07 Q0999
EDDT 270120Z 15007KT 130V200 9999 SCT009 BKN045 08/07 Q0999
EDDT 270050Z 15007KT 9999 FEW009 BKN045 09/07 Q0999
EDDT 270020Z 16006KT 9999 SCT009 BKN043 09/07 Q0999
EDDT 262350Z 17006KT 9999 SCT009 BKN014 09/08 Q0998
EDDT 262320Z 17007KT 130V200 9999 SCT009 BKN013 09/08 Q0998
EDDT 262250Z 17009KT 9999 BKN008 BKN011 09/08 Q0997
EDDT 262220Z 17007KT 9999 -DZ BKN007 BKN011 09/09 Q0997
EDDT 262150Z 17007KT 8000 -DZ SCT007 BKN011 10/09 Q0997
EDDT 262120Z 18006KT 9999 SCT009 BKN011 10/09 Q0996
EDDT 262050Z 18008KT 9999 -DZ FEW006 BKN013 10/09 Q0995 NOSIG
EDDT 262020Z 18009KT 9999 -DZ FEW004 BKN008 10/09 Q0995 BECMG BKN010
EDDT 261950Z 18007KT 9999 FEW004 BKN008 10/09 Q0994 BECMG BKN010
EDDT 261920Z 19009KT 9999 FEW004 BKN007 09/09 Q0993 BECMG BKN010
EDDT 261850Z 19011KT 9999 -DZ FEW004 BKN007 10/09 Q0992 BECMG BKN010
EDDT 261820Z 20013KT 6000 -DZ OVC006 10/09 Q0991 NOSIG
EDDT 261750Z 22012KT 6000 -RADZ OVC006 10/10 Q0991 NOSIG
EDDT 261720Z 23011KT 6000 -RADZ OVC006 11/10 Q0990 TEMPO 4000 DZ OVC004
EDDT 261650Z 25011KT 6000 -RADZ OVC006 11/10 Q0989 TEMPO 4000 DZ OVC004
EDDT 261620Z 25011KT 6000 -RA OVC007 11/10 Q0989 TEMPO 4000 DZ OVC004
EDDT 261550Z 28011KT 250V320 5000 -RA OVC005 11/10 Q0989 TEMPO RA
EDDT 261520Z 29012KT 260V350 7000 -RA BKN006 11/10 Q0989 TEMPO RA
EDDT 261450Z 30011KT 250V340 7000 -RA OVC007 11/10 Q0989 TEMPO RA
EDDT 261420Z 30012G23KT 270V330 7000 -RA OVC008 10/10 Q0990 TEMPO RA
EDDT 261350Z 31012G24KT 270V360 4500 RA SCT006 OVC008 10/10 Q0991 TEMPO 6000 -RA
EDDT 261320Z 30011KT 270V340 3500 RA SCT006 BKN007 10/10 Q0991 TEMPO 30015G25KT 6000
EDDT 261250Z 30012KT 260V340 4500 RA BKN006 10/10 Q0992 TEMPO 30015G25KT 6000
EDDT 261220Z 30010KT 260V350 5000 RA SCT006 BKN007 10/10 Q0992 TEMPO 30015G25KT 4500
EDDT 261150Z 30009KT 270V340 7000 -RA FEW007 SCT014 BKN040 10/10 Q0993 TEMPO 4500 RA BKN008
EDDT 261120Z 29009KT 9999 -RA FEW028 BKN039 OVC041 10/09 Q0994 TEMPO 4500 RA BKN008
EDDT 261050Z 29007KT 9999 -RA BKN042 10/09 Q0994 TEMPO 4500 RA BKN008
EDDT 261020Z 30007KT 270V330 9999 -RA BKN044 11/09 Q0994 TEMPO 4500 RA BKN008
EDDT 260950Z 30006KT 270V330 9999 -RA BKN049 11/09 Q0995 NOSIG
EDDT 260920Z 30006KT 260V340 9999 -RA NSC 11/09 Q0995 NOSIG